Terminal Aerodrome Forecast
Issued by NWS

Home | Current Version | Previous Version | Graphics & Text | Print | Product List | Glossary On
Versions: 1 2 3 4 5 6 7 8 9 10 11 12 13 14 15 16 17 18 19
000
FTUS43 KICT 010520
TAFSLN
TAF
KSLN 010520Z 0106/0206 12007KT P6SM SCT035
     FM010800 14005KT 5SM BR SCT008 BKN012
     FM011600 15014KT P6SM SCT020 BKN035
     FM011800 18012KT P6SM BKN060
     FM020200 12008KT P6SM BKN060=

USA.gov is the U.S. government's official web portal to all federal, state and local government web resources and services.